Time;durP1;ratioP1;P1;durP2;ratioP2;P2;SDS_P1;SDS_P2;PMS_P1;PMS_P2;Temp;Humidity;BMP_temperature;BMP_pressure;BME280_temperature;BME280_humidity;BME280_pressure;Samples;Min_cycle;Max_cycle;Signal;HPM_P1;HPM_P2
2021/01/21 00:00:00;;;;;;;2.72;1.48;;;7.70;65.90;;;;;;5035165;28;20839;-65
2021/01/21 00:02:26;;;;;;;3.42;1.75;;;7.70;65.60;;;;;;5037151;28;20115;-65
2021/01/21 00:04:51;;;;;;;2.88;1.60;;;7.70;65.50;;;;;;5037009;28;20041;-65
2021/01/21 00:07:17;;;;;;;3.22;1.40;;;7.70;64.60;;;;;;5035721;28;20033;-66
2021/01/21 00:09:44;;;;;;;2.05;1.20;;;7.70;65.20;;;;;;5034933;28;20860;-65
2021/01/21 00:12:10;;;;;;;2.85;1.48;;;7.70;64.70;;;;;;5037256;28;20056;-65
2021/01/21 00:14:35;;;;;;;2.17;1.48;;;7.70;65.00;;;;;;5036476;28;20867;-65
2021/01/21 00:17:01;;;;;;;1.63;1.02;;;7.70;65.50;;;;;;5035071;28;20402;-65
2021/01/21 00:19:27;;;;;;;3.08;1.48;;;7.70;65.60;;;;;;5037086;28;20040;-65
2021/01/21 00:21:52;;;;;;;2.25;1.48;;;7.70;64.40;;;;;;5035217;28;20532;-65
2021/01/21 00:24:19;;;;;;;1.65;1.00;;;7.70;64.10;;;;;;5036807;28;20040;-65
2021/01/21 00:26:44;;;;;;;1.42;1.20;;;7.70;64.50;;;;;;5037003;28;20040;-65
2021/01/21 00:29:10;;;;;;;3.25;1.67;;;7.70;64.80;;;;;;5036626;28;20052;-66
2021/01/21 00:31:37;;;;;;;1.67;1.30;;;7.70;64.30;;;;;;5037196;28;20036;-65
2021/01/21 00:34:03;;;;;;;2.13;1.30;;;7.70;64.20;;;;;;5036342;28;20033;-65
2021/01/21 00:36:28;;;;;;;3.10;1.50;;;7.70;64.30;;;;;;5031228;28;20109;-65
2021/01/21 00:38:54;;;;;;;2.22;1.30;;;7.70;64.30;;;;;;5036211;28;20032;-66
2021/01/21 00:41:20;;;;;;;2.47;1.67;;;7.70;63.80;;;;;;5036989;28;20040;-65
2021/01/21 00:43:46;;;;;;;1.13;1.00;;;7.80;64.20;;;;;;5036832;28;20519;-65
2021/01/21 00:46:12;;;;;;;2.78;1.27;;;7.80;63.90;;;;;;5036674;28;20524;-65
2021/01/21 00:48:38;;;;;;;1.63;1.35;;;7.90;63.20;;;;;;5036856;28;20111;-65
2021/01/21 00:51:04;;;;;;;2.88;1.98;;;7.90;63.40;;;;;;5037173;28;20021;-65
2021/01/21 00:53:29;;;;;;;2.63;1.50;;;7.90;63.10;;;;;;5043236;28;20037;-65
2021/01/21 00:55:55;;;;;;;4.55;1.38;;;7.90;62.80;;;;;;5036241;28;20078;-63
2021/01/21 00:58:21;;;;;;;2.28;1.52;;;7.90;63.00;;;;;;5033362;28;20763;-63
2021/01/21 01:00:47;;;;;;;3.92;1.42;;;7.90;63.10;;;;;;5036161;28;20037;-64
2021/01/21 01:03:15;;;;;;;1.48;1.15;;;7.90;63.10;;;;;;5034499;28;20036;-63
2021/01/21 01:05:42;;;;;;;2.03;1.10;;;7.90;62.50;;;;;;5034725;28;20056;-63
2021/01/21 01:08:08;;;;;;;2.05;1.15;;;7.90;62.00;;;;;;5037792;28;20389;-63
2021/01/21 01:10:34;;;;;;;1.70;1.10;;;8.00;61.90;;;;;;5018421;28;20102;-64
2021/01/21 01:13:09;;;;;;;2.40;1.20;;;8.10;61.40;;;;;;5035702;28;20485;-63
2021/01/21 01:15:36;;;;;;;1.63;0.90;;;8.10;60.40;;;;;;5038236;28;20028;-64
2021/01/21 01:18:02;;;;;;;3.10;1.30;;;8.20;60.20;;;;;;5041438;28;20025;-64
2021/01/21 01:20:28;;;;;;;2.92;1.48;;;8.20;60.30;;;;;;5041100;28;20040;-65
2021/01/21 01:22:55;;;;;;;2.13;1.00;;;8.20;60.00;;;;;;5039938;28;20766;-64
2021/01/21 01:25:22;;;;;;;2.00;0.90;;;8.20;60.00;;;;;;5041324;28;20114;-64
2021/01/21 01:27:48;;;;;;;1.15;0.90;;;8.20;59.60;;;;;;5039613;28;20037;-63
2021/01/21 01:30:15;;;;;;;2.60;0.80;;;8.20;59.90;;;;;;5033529;28;20039;-65
2021/01/21 01:32:45;;;;;;;2.13;1.30;;;8.30;59.30;;;;;;5039236;28;20025;-64
2021/01/21 01:35:11;;;;;;;1.58;1.10;;;8.30;58.60;;;;;;5032402;28;20028;-64
2021/01/21 01:37:39;;;;;;;2.08;1.15;;;8.30;58.90;;;;;;5039553;28;20035;-64
2021/01/21 01:40:13;;;;;;;1.67;1.05;;;8.40;58.50;;;;;;5038794;28;20040;-65
2021/01/21 01:42:44;;;;;;;2.05;1.10;;;8.30;58.40;;;;;;5038648;28;20033;-64
2021/01/21 01:45:13;;;;;;;1.85;0.93;;;8.30;59.10;;;;;;5036374;28;20086;-64
2021/01/21 01:47:44;;;;;;;2.22;1.30;;;8.30;58.10;;;;;;5038373;28;20063;-64
2021/01/21 01:50:18;;;;;;;1.63;1.00;;;8.30;58.00;;;;;;5036639;28;20095;-64
2021/01/21 01:52:44;;;;;;;2.53;1.20;;;8.30;58.30;;;;;;5039505;28;20425;-64
2021/01/21 01:55:22;;;;;;;2.03;1.17;;;8.30;57.90;;;;;;5034361;28;20033;-64
2021/01/21 01:58:09;;;;;;;2.42;1.55;;;8.20;58.80;;;;;;5039320;28;20454;-64
2021/01/21 02:00:44;;;;;;;1.75;1.08;;;8.30;56.90;;;;;;5017294;28;20033;-64
2021/01/21 02:03:11;;;;;;;1.85;1.00;;;8.20;58.60;;;;;;5039968;28;20930;-64
2021/01/21 02:05:45;;;;;;;1.67;0.98;;;8.30;57.90;;;;;;5036538;28;20505;-65
2021/01/21 02:08:11;;;;;;;1.63;1.15;;;8.20;58.50;;;;;;5040014;28;20039;-64
2021/01/21 02:10:36;;;;;;;2.00;1.10;;;8.30;58.00;;;;;;5039603;28;20033;-64
2021/01/21 02:13:24;;;;;;;2.60;1.08;;;8.30;58.70;;;;;;5038023;28;20025;-64
2021/01/21 02:16:13;;;;;;;1.58;1.10;;;8.30;58.40;;;;;;5037142;28;20029;-64
2021/01/21 02:18:46;;;;;;;1.77;1.30;;;8.30;57.50;;;;;;5037936;28;20036;-64
2021/01/21 02:21:46;;;;;;;3.22;1.05;;;8.30;58.10;;;;;;5038259;28;20033;-64
2021/01/21 02:25:01;;;;;;;1.60;1.00;;;8.30;58.30;;;;;;5039653;28;20031;-64
2021/01/21 02:27:46;;;;;;;2.38;1.20;;;8.30;58.40;;;;;;5037378;28;20064;-64
2021/01/21 02:30:51;;;;;;;2.53;0.90;;;8.30;57.90;;;;;;5037786;28;20123;-64
2021/01/21 02:33:54;;;;;;;1.50;1.40;;;8.20;58.20;;;;;;5031742;28;20040;-64
2021/01/21 02:36:33;;;;;;;1.42;0.80;;;8.20;58.60;;;;;;5036932;28;20091;-64
2021/01/21 02:39:04;;;;;;;2.70;1.10;;;8.20;57.70;;;;;;5037383;28;20132;-64
2021/01/21 02:41:32;;;;;;;1.73;1.10;;;8.20;58.80;;;;;;5037388;28;20115;-64
2021/01/21 02:43:58;;;;;;;1.15;1.05;;;8.30;57.70;;;;;;5038618;28;20044;-65
2021/01/21 02:46:24;;;;;;;2.05;1.20;;;8.30;58.40;;;;;;5035557;28;20029;-64
2021/01/21 02:48:52;;;;;;;1.70;1.17;;;8.30;57.90;;;;;;5028205;28;20029;-64
2021/01/21 02:51:42;;;;;;;1.77;1.10;;;8.20;58.40;;;;;;5036476;28;20025;-65
2021/01/21 02:54:43;;;;;;;1.70;1.10;;;8.30;57.90;;;;;;5036997;28;20591;-64
2021/01/21 02:57:20;;;;;;;2.38;1.00;;;8.30;57.80;;;;;;5035960;28;20845;-65
2021/01/21 02:59:46;;;;;;;;;;;8.30;58.80;;;;;;5039337;28;20377;-64
2021/01/21 03:02:17;;;;;;;1.63;0.98;;;8.20;59.30;;;;;;5037521;28;20003;-64
2021/01/21 03:04:45;;;;;;;2.03;1.10;;;8.20;58.50;;;;;;5038480;28;20793;-64
2021/01/21 03:07:14;;;;;;;4.07;1.00;;;8.30;58.50;;;;;;5037902;28;20036;-65
2021/01/21 03:09:44;;;;;;;1.27;0.95;;;8.20;59.40;;;;;;5038548;28;20497;-64
2021/01/21 03:12:25;;;;;;;1.38;0.80;;;8.20;58.30;;;;;;5032825;28;20037;-65
2021/01/21 03:14:56;;;;;;;1.60;0.90;;;8.30;59.20;;;;;;5035774;28;20032;-66
2021/01/21 03:17:26;;;;;;;2.30;1.13;;;8.20;59.10;;;;;;5036583;28;20040;-64
2021/01/21 03:20:03;;;;;;;1.60;0.90;;;8.30;59.10;;;;;;5036924;28;20036;-65
2021/01/21 03:22:30;;;;;;;7.28;1.17;;;8.40;57.30;;;;;;5036475;28;20036;-64
2021/01/21 03:24:56;;;;;;;1.30;0.98;;;8.40;57.70;;;;;;5036299;28;20033;-65
2021/01/21 03:27:32;;;;;;;3.10;1.10;;;8.40;58.10;;;;;;5035698;28;20496;-65
2021/01/21 03:30:07;;;;;;;2.30;0.90;;;8.50;57.80;;;;;;5030771;28;20289;-64
2021/01/21 03:32:34;;;;;;;1.48;0.93;;;8.50;57.00;;;;;;5036010;28;20025;-66
2021/01/21 03:35:00;;;;;;;1.55;0.80;;;8.60;57.30;;;;;;5035299;28;20032;-65
2021/01/21 03:37:26;;;;;;;3.08;1.35;;;8.60;57.70;;;;;;5035060;28;20036;-65
2021/01/21 03:39:54;;;;;;;3.00;0.85;;;8.60;56.80;;;;;;5035929;28;20044;-60
2021/01/21 03:42:34;;;;;;;2.00;1.08;;;8.60;56.70;;;;;;5036163;28;21007;-59
2021/01/21 03:45:13;;;;;;;2.10;1.08;;;8.60;56.70;;;;;;5035386;28;20043;-60
2021/01/21 03:47:39;;;;;;;3.33;1.08;;;8.60;57.30;;;;;;5035379;28;20036;-61
2021/01/21 03:50:06;;;;;;;2.38;0.90;;;8.60;57.70;;;;;;5033413;28;20025;-61
2021/01/21 03:52:35;;;;;;;1.98;0.90;;;8.60;56.90;;;;;;5036504;28;20120;-61
2021/01/21 03:55:06;;;;;;;3.10;1.30;;;8.60;57.10;;;;;;5034888;28;20063;-60
2021/01/21 03:57:32;;;;;;;2.45;1.02;;;8.60;57.20;;;;;;5037155;28;20045;-60
2021/01/21 04:00:14;;;;;;;1.60;0.90;;;8.60;57.90;;;;;;5018883;28;20493;-60
2021/01/21 04:02:47;;;;;;;1.30;0.70;;;8.60;57.20;;;;;;5035729;28;20406;-60
2021/01/21 04:05:28;;;;;;;1.80;1.23;;;8.70;57.90;;;;;;5035213;28;20090;-60
2021/01/21 04:07:55;;;;;;;1.50;0.90;;;8.70;57.10;;;;;;5037598;28;20029;-61
2021/01/21 04:10:21;;;;;;;2.42;0.85;;;8.70;57.70;;;;;;5035417;28;20562;-61
2021/01/21 04:13:09;;;;;;;1.20;1.00;;;8.70;56.50;;;;;;5037483;28;20075;-60
2021/01/21 04:15:35;;;;;;;3.08;0.80;;;8.80;56.80;;;;;;5034792;28;20037;-60
2021/01/21 04:18:02;;;;;;;2.63;1.00;;;8.80;57.20;;;;;;5035111;28;20040;-60
2021/01/21 04:20:37;;;;;;;0.97;0.90;;;8.80;56.60;;;;;;5035662;28;20036;-61
2021/01/21 04:23:04;;;;;;;0.80;0.80;;;8.80;57.00;;;;;;5035633;28;20273;-61
2021/01/21 04:25:29;;;;;;;1.10;1.00;;;8.80;57.00;;;;;;5028640;28;20041;-60
2021/01/21 04:27:59;;;;;;;1.58;1.08;;;8.80;56.70;;;;;;5035057;28;20025;-61
2021/01/21 04:30:25;;;;;;;1.50;0.88;;;8.80;56.50;;;;;;5035666;28;20075;-60
2021/01/21 04:32:54;;;;;;;1.40;0.90;;;8.70;57.80;;;;;;5034999;28;20170;-60
2021/01/21 04:35:20;;;;;;;2.15;1.40;;;8.70;57.00;;;;;;5034461;28;20037;-61
2021/01/21 04:37:49;;;;;;;1.90;1.17;;;8.70;57.20;;;;;;5034153;28;20048;-60
2021/01/21 04:40:23;;;;;;;1.10;1.00;;;8.70;56.80;;;;;;5035377;28;20952;-61
2021/01/21 04:43:00;;;;;;;1.70;1.17;;;8.60;57.80;;;;;;5034841;28;20182;-61
2021/01/21 04:45:26;;;;;;;1.48;0.90;;;8.70;58.30;;;;;;5035883;28;20068;-60
2021/01/21 04:47:52;;;;;;;1.33;0.93;;;8.70;57.20;;;;;;5034146;28;20037;-61
2021/01/21 04:50:28;;;;;;;2.67;1.00;;;8.70;58.00;;;;;;5034872;28;20032;-60
2021/01/21 04:53:22;;;;;;;3.85;1.15;;;8.70;57.00;;;;;;5020122;28;20064;-60
2021/01/21 04:56:01;;;;;;;1.17;0.98;;;8.70;57.40;;;;;;5029782;28;20021;-61
2021/01/21 04:59:09;;;;;;;1.30;0.93;;;8.70;57.10;;;;;;5001996;28;20056;-60
2021/01/21 05:01:42;;;;;;;2.28;1.00;;;8.70;56.70;;;;;;5016866;28;20025;-60
2021/01/21 05:04:12;;;;;;;2.63;1.05;;;8.70;57.30;;;;;;5002181;28;20665;-60
2021/01/21 05:06:59;;;;;;;2.65;1.00;;;8.70;57.50;;;;;;5000973;28;20850;-60
2021/01/21 05:09:29;;;;;;;2.08;1.20;;;8.60;57.40;;;;;;5017753;28;20552;-60
2021/01/21 05:11:56;;;;;;;1.67;0.90;;;8.70;57.70;;;;;;5011879;28;20112;-60
2021/01/21 05:14:28;;;;;;;2.58;1.20;;;8.70;58.10;;;;;;5003212;28;20050;-60
2021/01/21 05:17:20;;;;;;;1.00;0.80;;;8.70;57.40;;;;;;5003368;28;20088;-60
2021/01/21 05:19:47;;;;;;;1.30;0.77;;;8.70;58.10;;;;;;5002341;28;20137;-60
2021/01/21 05:22:27;;;;;;;0.85;0.75;;;8.70;57.40;;;;;;5004469;28;20048;-60
2021/01/21 05:25:12;;;;;;;1.48;1.00;;;8.70;57.80;;;;;;5003021;28;20135;-60
2021/01/21 05:27:58;;;;;;;1.90;0.98;;;8.70;58.20;;;;;;5002096;28;20040;-61
2021/01/21 05:30:45;;;;;;;1.92;1.27;;;8.70;58.50;;;;;;5011208;28;20065;-60
2021/01/21 05:33:14;;;;;;;1.40;0.88;;;8.60;58.00;;;;;;5025016;28;20079;-60
2021/01/21 05:35:52;;;;;;;1.92;1.05;;;8.50;58.30;;;;;;5011040;28;20026;-61
2021/01/21 05:38:20;;;;;;;1.45;0.80;;;8.50;58.10;;;;;;5023650;28;20037;-60
2021/01/21 05:41:09;;;;;;;1.33;1.10;;;8.60;57.30;;;;;;5020982;28;20083;-60
2021/01/21 05:43:55;;;;;;;1.50;1.10;;;8.60;57.90;;;;;;5020031;28;20045;-60
2021/01/21 05:46:26;;;;;;;1.60;1.10;;;8.50;57.80;;;;;;5046881;28;20086;-59
2021/01/21 05:48:52;;;;;;;2.47;0.70;;;8.50;58.30;;;;;;5031919;28;20025;-60
2021/01/21 05:51:23;;;;;;;1.52;1.23;;;8.50;58.40;;;;;;5036484;28;20195;-60
2021/01/21 05:53:54;;;;;;;2.40;1.13;;;8.40;58.10;;;;;;5033239;28;20697;-60
2021/01/21 05:56:36;;;;;;;1.33;0.80;;;8.40;56.90;;;;;;5034208;28;20378;-60
2021/01/21 05:59:14;;;;;;;2.47;0.75;;;8.50;57.80;;;;;;5034406;28;20029;-61
2021/01/21 06:01:41;;;;;;;1.42;1.17;;;8.50;58.60;;;;;;5037179;28;20036;-60
2021/01/21 06:04:13;;;;;;;1.48;0.85;;;8.60;58.00;;;;;;5037687;28;20037;-61
2021/01/21 06:06:42;;;;;;;0.73;0.73;;;8.60;58.00;;;;;;5033680;28;20058;-60
2021/01/21 06:09:18;;;;;;;1.73;1.02;;;8.70;56.90;;;;;;5027978;28;20029;-60
2021/01/21 06:11:44;;;;;;;0.98;0.90;;;8.70;57.40;;;;;;5029999;28;20048;-61
2021/01/21 06:14:11;;;;;;;2.42;1.08;;;8.70;56.60;;;;;;5032538;28;20033;-61
2021/01/21 06:16:38;;;;;;;1.73;0.77;;;8.80;56.50;;;;;;5036695;28;20037;-60
2021/01/21 06:19:04;;;;;;;1.95;1.10;;;8.80;56.40;;;;;;5039967;28;20029;-61
2021/01/21 06:21:46;;;;;;;2.33;1.10;;;8.90;56.50;;;;;;5037915;28;20389;-60
2021/01/21 06:24:29;;;;;;;0.85;0.77;;;8.90;56.00;;;;;;5010699;28;20040;-60
2021/01/21 06:27:02;;;;;;;2.50;1.15;;;9.00;55.10;;;;;;5034477;28;20037;-60
2021/01/21 06:29:28;;;;;;;1.75;1.30;;;9.00;55.00;;;;;;5039863;28;20036;-61
2021/01/21 06:32:01;;;;;;;1.25;1.00;;;9.00;55.40;;;;;;5033948;28;20037;-61
2021/01/21 06:34:32;;;;;;;1.98;1.00;;;9.00;55.30;;;;;;5034077;28;20086;-61
2021/01/21 06:37:11;;;;;;;1.30;0.90;;;9.10;55.00;;;;;;5034703;28;20690;-61
2021/01/21 06:39:50;;;;;;;2.10;0.80;;;9.20;55.10;;;;;;5036921;28;20499;-60
2021/01/21 06:42:19;;;;;;;1.67;1.10;;;9.30;54.60;;;;;;5029080;28;20084;-61
2021/01/21 06:44:49;;;;;;;1.10;0.80;;;9.30;54.50;;;;;;5039329;28;20094;-60
2021/01/21 06:47:15;;;;;;;1.23;0.80;;;9.40;54.20;;;;;;5038938;28;20033;-60
2021/01/21 06:49:41;;;;;;;1.13;1.00;;;9.40;54.80;;;;;;5038412;28;20083;-60
2021/01/21 06:52:09;;;;;;;2.25;1.17;;;9.30;53.70;;;;;;5038254;28;20037;-60
2021/01/21 06:54:36;;;;;;;1.35;0.85;;;9.30;54.00;;;;;;5039053;28;20064;-61
2021/01/21 06:57:02;;;;;;;0.98;0.75;;;9.30;54.00;;;;;;5035818;28;20033;-60
2021/01/21 06:59:54;;;;;;;1.92;1.05;;;9.30;53.60;;;;;;5037683;28;20039;-60
2021/01/21 07:02:48;;;;;;;1.30;1.10;;;9.30;53.90;;;;;;5036217;28;20056;-60
2021/01/21 07:05:22;;;;;;;2.25;0.77;;;9.20;55.70;;;;;;5038398;28;20504;-60
2021/01/21 07:07:53;;;;;;;1.83;1.10;;;9.10;55.20;;;;;;5033919;28;20701;-60
2021/01/21 07:10:28;;;;;;;1.23;0.85;;;9.10;54.80;;;;;;5038620;28;20029;-60
2021/01/21 07:12:54;;;;;;;0.88;0.70;;;9.10;55.20;;;;;;5037860;28;20668;-60
2021/01/21 07:15:35;;;;;;;0.82;0.80;;;9.10;55.10;;;;;;5037941;28;20037;-60
2021/01/21 07:18:03;;;;;;;1.23;0.80;;;9.10;55.30;;;;;;5036187;28;20808;-60
2021/01/21 07:20:34;;;;;;;1.88;1.10;;;9.10;54.90;;;;;;5038789;28;20036;-60
2021/01/21 07:23:06;;;;;;;5.00;0.90;;;9.10;54.90;;;;;;5032413;28;20064;-60
2021/01/21 07:25:33;;;;;;;3.83;0.80;;;9.20;54.30;;;;;;5036248;28;20037;-61
2021/01/21 07:28:08;;;;;;;1.63;1.02;;;9.20;55.80;;;;;;5034818;28;20036;-60
2021/01/21 07:30:37;;;;;;;2.22;0.93;;;9.20;54.40;;;;;;5038176;28;20041;-61
2021/01/21 07:33:23;;;;;;;1.48;0.70;;;9.20;54.90;;;;;;5037953;28;20033;-60
2021/01/21 07:35:53;;;;;;;1.95;1.15;;;9.20;54.90;;;;;;5028799;28;20127;-60
2021/01/21 07:38:40;;;;;;;2.78;0.80;;;9.10;55.30;;;;;;5037220;28;20141;-60
2021/01/21 07:41:06;;;;;;;1.63;0.90;;;9.10;55.50;;;;;;5029375;28;20025;-60
2021/01/21 07:43:54;;;;;;;1.30;0.90;;;9.10;56.50;;;;;;5026970;28;20021;-60
2021/01/21 07:46:24;;;;;;;1.73;1.10;;;9.10;56.10;;;;;;5034515;28;20041;-61
2021/01/21 07:49:09;;;;;;;0.82;0.82;;;9.20;55.60;;;;;;5036597;28;20462;-61
2021/01/21 07:51:35;;;;;;;1.73;0.98;;;9.20;56.00;;;;;;5024615;28;20029;-61
2021/01/21 07:54:04;;;;;;;3.13;1.00;;;9.10;56.00;;;;;;5037602;28;20609;-61
2021/01/21 07:56:30;;;;;;;1.75;0.98;;;9.10;55.90;;;;;;5037697;28;20043;-60
2021/01/21 07:59:00;;;;;;;3.10;1.15;;;9.20;56.40;;;;;;5037653;28;20124;-61
2021/01/21 08:01:25;;;;;;;3.40;0.80;;;9.20;56.40;;;;;;5031242;28;20045;-60
2021/01/21 08:03:51;;;;;;;2.17;0.93;;;9.10;56.50;;;;;;5035401;28;20041;-61
2021/01/21 08:06:18;;;;;;;1.13;0.95;;;9.20;56.40;;;;;;5049597;28;20035;-63
2021/01/21 08:08:49;;;;;;;1.00;0.77;;;9.30;55.70;;;;;;5027771;28;20040;-62
2021/01/21 08:11:20;;;;;;;2.05;1.20;;;9.40;55.70;;;;;;5038085;28;20203;-61
2021/01/21 08:13:47;;;;;;;2.03;1.10;;;9.40;56.00;;;;;;5027963;28;20028;-61
2021/01/21 08:16:14;;;;;;;1.85;1.20;;;9.40;56.00;;;;;;5036143;28;20064;-61
2021/01/21 08:18:41;;;;;;;1.98;0.90;;;9.50;56.10;;;;;;5034875;28;20448;-61
2021/01/21 08:21:24;;;;;;;2.33;1.02;;;9.50;55.40;;;;;;5029434;28;20055;-61
2021/01/21 08:24:00;;;;;;;1.73;0.90;;;9.60;55.80;;;;;;5037717;28;20166;-61
2021/01/21 08:26:28;;;;;;;0.88;0.73;;;9.70;56.00;;;;;;5051786;28;20043;-61
2021/01/21 08:28:54;;;;;;;1.45;0.80;;;9.80;55.80;;;;;;5036271;28;20519;-61
2021/01/21 08:31:38;;;;;;;2.13;0.90;;;9.90;55.60;;;;;;5036671;28;20127;-61
2021/01/21 08:34:07;;;;;;;1.50;0.90;;;10.00;54.90;;;;;;5037120;28;20037;-60
2021/01/21 08:36:34;;;;;;;0.68;0.57;;;10.00;55.50;;;;;;5033478;28;20044;-61
2021/01/21 08:39:01;;;;;;;1.17;0.70;;;10.00;55.00;;;;;;5031622;28;20045;-61
2021/01/21 08:41:27;;;;;;;1.58;0.70;;;10.10;54.80;;;;;;5023120;28;20037;-61
2021/01/21 08:43:59;;;;;;;1.02;0.70;;;10.10;55.00;;;;;;5017947;28;20850;-60
2021/01/21 08:46:26;;;;;;;0.80;0.70;;;10.20;54.40;;;;;;5037120;28;20565;-61
2021/01/21 08:48:52;;;;;;;1.13;0.80;;;10.20;54.70;;;;;;5049786;28;20079;-61
2021/01/21 08:51:34;;;;;;;0.80;0.80;;;10.20;55.10;;;;;;5027529;28;20833;-60
2021/01/21 08:54:20;;;;;;;2.17;0.93;;;10.20;54.80;;;;;;5029502;28;20110;-64
2021/01/21 08:57:05;;;;;;;1.13;0.80;;;10.30;55.10;;;;;;5024453;28;20078;-64
2021/01/21 08:59:34;;;;;;;1.38;0.80;;;10.40;54.70;;;;;;5030689;28;20122;-64
2021/01/21 09:02:00;;;;;;;2.40;0.60;;;10.50;54.80;;;;;;5027879;28;20056;-64
2021/01/21 09:04:28;;;;;;;3.70;0.77;;;10.60;54.10;;;;;;5031623;28;20037;-64
2021/01/21 09:06:55;;;;;;;1.50;0.80;;;10.60;54.10;;;;;;5036816;28;20079;-64
2021/01/21 09:09:29;;;;;;;0.93;0.80;;;10.70;54.10;;;;;;5036960;28;20091;-64
2021/01/21 09:11:55;;;;;;;0.70;0.70;;;10.80;53.40;;;;;;5035991;28;20490;-64
2021/01/21 09:14:23;;;;;;;0.98;0.80;;;10.90;52.10;;;;;;5035981;28;20866;-64
2021/01/21 09:16:54;;;;;;;2.25;0.82;;;11.00;52.40;;;;;;5024546;28;20128;-64
2021/01/21 09:19:29;;;;;;;2.30;0.98;;;11.20;52.00;;;;;;5034764;28;20045;-64
2021/01/21 09:22:03;;;;;;;3.28;0.85;;;11.40;51.20;;;;;;5033347;28;20758;-64
2021/01/21 09:24:29;;;;;;;2.95;0.80;;;11.50;51.10;;;;;;5036084;28;20041;-63
2021/01/21 09:27:16;;;;;;;1.30;0.80;;;11.50;51.40;;;;;;5036092;28;20025;-66
2021/01/21 09:30:04;;;;;;;2.03;0.93;;;11.80;50.60;;;;;;5032953;28;20091;-65
2021/01/21 09:32:32;;;;;;;1.02;0.75;;;12.10;50.20;;;;;;5037286;28;20029;-65
2021/01/21 09:35:08;;;;;;;2.15;0.90;;;12.60;48.90;;;;;;5036167;28;20543;-65
2021/01/21 09:37:38;;;;;;;;;;;13.70;46.90;;;;;;5038909;28;20045;-65
2021/01/21 09:40:07;;;;;;;1.27;0.90;;;14.90;43.90;;;;;;5029699;28;19983;-65
2021/01/21 09:42:33;;;;;;;0.82;0.63;;;15.50;42.70;;;;;;5030488;28;20579;-65
2021/01/21 09:44:59;;;;;;;2.15;1.00;;;15.70;41.30;;;;;;5037034;28;20068;-71
2021/01/21 09:47:26;;;;;;;1.70;0.75;;;15.50;41.80;;;;;;5037114;28;20116;-65
2021/01/21 09:49:52;;;;;;;2.05;0.90;;;15.80;41.60;;;;;;5039929;28;20037;-65
2021/01/21 09:52:18;;;;;;;2.03;0.60;;;15.30;42.20;;;;;;5034293;28;20033;-65
2021/01/21 09:54:44;;;;;;;2.10;0.95;;;14.60;43.80;;;;;;5040014;28;20041;-66
2021/01/21 09:57:09;;;;;;;1.20;0.73;;;14.00;45.70;;;;;;5039556;28;20040;-66
2021/01/21 09:59:35;;;;;;;2.13;0.90;;;13.60;45.90;;;;;;5040228;28;20032;-66
2021/01/21 10:02:01;;;;;;;2.40;0.90;;;13.30;46.90;;;;;;5041255;28;20532;-66
2021/01/21 10:04:27;;;;;;;1.00;0.90;;;13.30;47.20;;;;;;5040846;28;20032;-65
2021/01/21 10:06:53;;;;;;;1.65;0.90;;;13.30;47.00;;;;;;5040438;28;20024;-66
2021/01/21 10:09:19;;;;;;;1.40;0.75;;;13.20;47.50;;;;;;5040628;28;20143;-66
2021/01/21 10:11:44;;;;;;;1.13;0.90;;;13.00;47.40;;;;;;5035944;28;20075;-65
2021/01/21 10:14:11;;;;;;;2.75;0.80;;;12.90;47.90;;;;;;5038878;28;20286;-65
2021/01/21 10:16:36;;;;;;;1.42;0.77;;;12.80;47.20;;;;;;5037750;28;20048;-65
2021/01/21 10:19:02;;;;;;;1.50;0.90;;;12.80;48.10;;;;;;5037876;28;20040;-66
2021/01/21 10:21:28;;;;;;;1.10;0.60;;;12.80;47.80;;;;;;5039577;28;20029;-64
2021/01/21 10:23:54;;;;;;;1.42;0.90;;;12.90;48.40;;;;;;5039738;28;20527;-65
2021/01/21 10:26:20;;;;;;;1.00;0.77;;;13.00;48.10;;;;;;5039907;28;20033;-65
2021/01/21 10:28:46;;;;;;;2.92;0.75;;;12.90;48.20;;;;;;5040394;28;20025;-67
2021/01/21 10:31:12;;;;;;;1.17;0.80;;;12.80;48.20;;;;;;5039252;28;20163;-65
2021/01/21 10:33:38;;;;;;;1.98;0.95;;;12.90;47.60;;;;;;5040597;28;20033;-64
2021/01/21 10:36:08;;;;;;;2.70;0.90;;;12.90;48.00;;;;;;5036456;28;20033;-64
2021/01/21 10:38:34;;;;;;;1.35;0.80;;;13.00;48.70;;;;;;5039876;28;20481;-67
2021/01/21 10:41:01;;;;;;;1.13;0.73;;;12.90;48.20;;;;;;5025465;28;20035;-65
2021/01/21 10:43:27;;;;;;;1.23;0.82;;;12.90;49.30;;;;;;5029626;28;20032;-65
2021/01/21 10:45:52;;;;;;;2.13;1.02;;;12.90;48.20;;;;;;5039548;28;20040;-65
2021/01/21 10:48:18;;;;;;;0.63;0.60;;;13.10;49.00;;;;;;5036298;28;20032;-65
2021/01/21 10:50:44;;;;;;;2.53;1.42;;;13.10;48.40;;;;;;5039709;28;20078;-69
2021/01/21 10:53:12;;;;;;;1.70;1.38;;;13.10;49.70;;;;;;5032789;28;20159;-65
2021/01/21 10:55:38;;;;;;;2.50;0.93;;;13.40;51.80;;;;;;5038876;28;20416;-65
2021/01/21 10:58:05;;;;;;;2.28;0.75;;;13.90;49.50;;;;;;5038946;28;20041;-66
2021/01/21 11:00:30;;;;;;;0.77;0.77;;;14.10;46.80;;;;;;5038220;28;20071;-65
2021/01/21 11:02:57;;;;;;;0.93;0.70;;;13.90;47.30;;;;;;5038554;28;20119;-65
2021/01/21 11:05:23;;;;;;;2.47;1.02;;;13.60;48.10;;;;;;5037892;28;20040;-65
2021/01/21 11:07:49;;;;;;;1.33;0.70;;;13.50;49.00;;;;;;5035391;28;20120;-65
2021/01/21 11:10:14;;;;;;;1.25;0.73;;;13.40;49.50;;;;;;5039575;28;20021;-64
2021/01/21 11:12:42;;;;;;;2.58;0.73;;;13.30;48.70;;;;;;5037766;28;20080;-65
2021/01/21 11:15:08;;;;;;;0.73;0.60;;;13.20;49.30;;;;;;5038791;28;20090;-65
2021/01/21 11:17:34;;;;;;;1.77;0.88;;;13.10;49.20;;;;;;5039060;28;20037;-67
2021/01/21 11:20:00;;;;;;;0.55;0.50;;;13.20;49.40;;;;;;5039303;28;20068;-65
2021/01/21 11:22:25;;;;;;;1.45;0.63;;;13.20;49.80;;;;;;5038738;28;20223;-64
2021/01/21 11:24:51;;;;;;;0.80;0.70;;;13.20;49.70;;;;;;5039811;28;20029;-65
2021/01/21 11:27:17;;;;;;;2.17;0.63;;;13.20;49.60;;;;;;5033993;28;20121;-65
2021/01/21 11:29:43;;;;;;;1.20;0.60;;;13.20;49.60;;;;;;5030557;28;20077;-64
2021/01/21 11:32:09;;;;;;;4.07;0.80;;;13.20;49.80;;;;;;5039234;28;20545;-65
2021/01/21 11:34:35;;;;;;;2.47;0.80;;;13.20;49.90;;;;;;5037035;28;20299;-63
2021/01/21 11:37:01;;;;;;;2.33;0.82;;;13.10;50.00;;;;;;5031919;28;20473;-66
2021/01/21 11:39:26;;;;;;;1.02;0.70;;;13.20;50.00;;;;;;5037508;28;20043;-65
2021/01/21 11:41:53;;;;;;;1.27;0.68;;;13.20;50.60;;;;;;5026659;28;20438;-67
2021/01/21 11:44:19;;;;;;;1.77;0.80;;;13.10;50.40;;;;;;5039188;28;20116;-66
2021/01/21 11:46:44;;;;;;;2.92;0.77;;;13.10;50.50;;;;;;5039227;28;20600;-66
2021/01/21 11:49:10;;;;;;;1.45;0.80;;;13.10;51.20;;;;;;5037672;28;20033;-67
2021/01/21 11:51:36;;;;;;;2.55;0.73;;;13.20;50.80;;;;;;5037667;28;20139;-67
2021/01/21 11:54:02;;;;;;;1.15;0.80;;;13.10;51.10;;;;;;5036790;28;20033;-66
2021/01/21 11:56:28;;;;;;;1.20;0.80;;;13.10;51.10;;;;;;5037615;28;20036;-66
2021/01/21 11:58:53;;;;;;;1.25;0.80;;;13.10;50.70;;;;;;5028099;28;20392;-66
2021/01/21 12:01:19;;;;;;;0.82;0.70;;;13.00;51.50;;;;;;5030943;28;20885;-67
2021/01/21 12:03:45;;;;;;;0.85;0.73;;;13.10;51.60;;;;;;5029300;28;20029;-68
2021/01/21 12:06:11;;;;;;;1.15;0.75;;;13.10;51.20;;;;;;5025984;28;20658;-67
2021/01/21 12:08:36;;;;;;;0.77;0.60;;;13.00;51.90;;;;;;5031552;28;20863;-67
2021/01/21 12:11:02;;;;;;;0.88;0.68;;;13.00;52.10;;;;;;5038852;28;20116;-67
2021/01/21 12:13:27;;;;;;;0.70;0.50;;;12.90;52.10;;;;;;5035965;28;20128;-68
2021/01/21 12:15:53;;;;;;;0.98;0.52;;;12.80;52.40;;;;;;5034517;28;20439;-67
2021/01/21 12:18:19;;;;;;;1.45;0.90;;;12.80;52.60;;;;;;5025177;28;20650;-67
2021/01/21 12:20:45;;;;;;;1.58;0.73;;;12.90;53.10;;;;;;5038823;28;20112;-69
2021/01/21 12:23:11;;;;;;;0.73;0.60;;;13.00;52.60;;;;;;5038877;28;20021;-66
2021/01/21 12:25:37;;;;;;;0.95;0.75;;;13.10;52.70;;;;;;5038049;28;20389;-66
2021/01/21 12:28:03;;;;;;;3.38;0.70;;;13.10;52.80;;;;;;5038333;28;20029;-65
2021/01/21 12:30:28;;;;;;;2.42;0.95;;;13.00;54.00;;;;;;5036641;28;20536;-66
2021/01/21 12:32:54;;;;;;;3.47;1.90;;;13.10;53.70;;;;;;5038470;28;20102;-66
2021/01/21 12:35:20;;;;;;;2.85;1.67;;;13.10;54.30;;;;;;5035821;28;20041;-66
2021/01/21 12:37:46;;;;;;;1.42;0.90;;;13.20;53.70;;;;;;5038380;28;20195;-73
2021/01/21 12:40:12;;;;;;;3.25;0.98;;;13.20;53.70;;;;;;5031082;28;20132;-71
2021/01/21 12:42:38;;;;;;;3.33;0.77;;;13.20;53.90;;;;;;5027094;28;20139;-67
2021/01/21 12:45:05;;;;;;;1.60;0.65;;;13.20;53.60;;;;;;5036971;28;20043;-66
2021/01/21 12:47:31;;;;;;;3.55;1.80;;;13.00;53.60;;;;;;5037603;28;20083;-67
2021/01/21 12:49:56;;;;;;;6.55;2.30;;;13.00;55.30;;;;;;5038635;28;20477;-67
2021/01/21 12:52:23;;;;;;;1.50;1.00;;;13.00;55.20;;;;;;5035993;28;20039;-68
2021/01/21 12:54:48;;;;;;;2.50;0.80;;;13.00;55.90;;;;;;5061598;28;20048;-67
2021/01/21 12:57:18;;;;;;;1.75;1.38;;;12.80;57.30;;;;;;5055590;28;20049;-68
2021/01/21 12:59:45;;;;;;;1.20;1.10;;;12.70;58.80;;;;;;5049193;28;20037;-67
2021/01/21 13:02:11;;;;;;;3.00;0.80;;;12.70;58.90;;;;;;5056962;28;20139;-67
2021/01/21 13:04:37;;;;;;;1.73;1.23;;;12.50;59.70;;;;;;5058376;28;20071;-67
2021/01/21 13:07:04;;;;;;;5.65;3.00;;;12.50;59.90;;;;;;5057957;28;20056;-67
2021/01/21 13:09:30;;;;;;;1.20;1.00;;;12.50;59.80;;;;;;5056557;28;20082;-67